Davenport, New York
Current Conditions -  °F | °C
As of 12:15 AM on Thursday 23 Oct 2014 (Local Time) from KNY0 Reporting Station
Overcast Overcast  
Wind Chill: 46°   Ceiling: 2700
Heat Index: 48°   Visibility: 10mi
Dew Point: 42°   Wind: 5mph
Humidity: 79%   Direction: 20°NNE
Pressure: 29.95"   Gusts: NA
Location:  42.47°N, 74.84°W
Report Text: KNY0 230415Z AUTO 02004KT 10SM BKN027 OVC050 09/06 A2995 RMK AO2 T00900055
Loading
Personal Weather Stations






























Interactive Weather Map
Tropical Storm Tracking
New forecast layout! Learn more

10-Day Weather Forecast

Advertisements
Track Severe Weather on mobile